Marsh Hill, Pennsylvania
Current Conditions -  °F | °C
As of 4:54 PM on Friday 24 Oct 2014 (Local Time) from KIPT Reporting Station
Clear Clear  
Wind Chill: 66°   Ceiling: Unl
Heat Index: 66°   Visibility: 10mi
Dew Point: 25°   Wind: 7mph
Humidity: 21%   Direction: 330°NNW
Pressure: 29.85"   Gusts: NA
Location:  41.4223°N, 76.9976°W
Report Text: KIPT 242054Z 33006KT 10SM CLR 19/M04 A2985 RMK AO2 SLP106 T01891039 55005
Loading
Personal Weather Stations






























Interactive Weather Map
Tropical Storm Tracking
New forecast layout! Learn more

10-Day Weather Forecast

Advertisements
Track Severe Weather on mobile